KAQO

Llano Municipal Airport

Llano, Texas, USA
METAR KAQO 190030Z AUTO 36006KT 10SM BKN034 11/03 A3026 RMK AO2
Observed Flight Rules
Nov-19 @ 00:30 UTC (28 minutes ago) Visual Flight Rules
Wind Visibility Clouds
360° at 6 knots 10 miles
  • Broken at 3,400' AGL
Temperatures Readings
Current 11°C / 52°F
Dewpoint 3°C / 37°F
Humidity 58%
Altimeter 30.26" Hg
Pressure 1025 hPa
Elevation 336
METAR KAQO 190030Z AUTO 36006KT 10SM BKN034 11/03 A3026 RMK AO2
Observed Flight Rules
Nov-19 @ 00:30 UTC
(28 minutes ago)
VFR
Wind Visibility
360° at 6 knots 10 miles
Clouds
  • Broken at 3,400' AGL
Temperature Dewpoint
11°C / 52°F 3°C / 37°F
Humidity Altimeter Pressure
58% 30.26" Hg 1025 hPa